HOURLY OBS INDEX

055

Northwest Slopes - south

GUNNEDAH AIRPORT AWS

Site: 055202
Alt: 262.6m
3km N of GUNNEDAH


  Time     Wind        Temp  DP   Baro     Rain since   Rain past  Vis(m), Cloud(base in m), Weather
  local        km/h                         9am  last   hr   10m    
Sun 12:00  NNW  9/ 13  19.2  6.0  1023.1    0.2   0.0   0.2   0.0   ----- 
Sun 12:30  NNW 11/ 17  20.0  7.7  1022.8    0.2   0.0   0.0   0.0   ----- 
Sun 13:00  NNW  9/ 17  20.9  8.2  1022.4    0.2   0.0   0.0   0.0   ----- 
Sun 13:30    W 11/ 19  21.5  8.1  1021.9    0.2   0.0   0.0   0.0   ----- 
Sun 14:00  WNW 13/ 22  21.7  2.9  1021.4    0.2   0.0   0.0   0.0   ----- 
Sun 14:30  WNW 11/ 20  22.7  4.2  1020.9    0.2   0.0   0.0   0.0   ----- 
Sun 15:00   NW 11/ 20  22.3  3.9  1020.4    0.2   0.0   0.0   0.0   ----- 
Sun 15:30   NW 13/ 19  22.3  3.9  1020.2    0.2   0.0   0.0   0.0   ----- 
Sun 16:00   NW 11/ 17  22.6  4.6  1020.0    0.2   0.0   0.0   0.0   ----- 
Sun 16:30   NW  9/ 17  22.5  5.0  1020.0    0.2   0.0   0.0   0.0   ----- 
Sun 17:00    N  9/ 11  20.8  7.4  1020.1    0.2   0.0   0.0   0.0   ----- 

TAMWORTH AIRPORT AWS

Site: 055325
Alt: 394.9m
9km WNW of TAMWORTH


  Time     Wind        Temp  DP   Baro     Rain since   Rain past  Vis(m), Cloud(base in m), Weather
  local        km/h                         9am  last   hr   10m    
Sun 12:00   NW  9/ 17  19.2  9.4  1023.0    0.0   0.0   0.0   0.0   10000 
Sun 12:30  NNW  9/ 20  19.6  9.5  1022.8    0.0   0.0   0.0   0.0   10000 
Sun 13:00    W 15/ 24  20.2  7.6  1022.6    0.0   0.0   0.0   0.0   10000 
Sun 13:30  WNW 13/ 20  20.4  8.4  1022.3    0.0   0.0   0.0   0.0   10000 
Sun 14:00  WNW 15/ 24  20.6  9.5  1022.0    0.0   0.0   0.0   0.0   10000 
Sun 14:30  NNW 11/ 20  20.8  7.1  1021.5    0.0   0.0   0.0   0.0   10000 
Sun 15:00    N 17/ 22  21.0  5.4  1021.1    0.0   0.0   0.0   0.0   10000 
Sun 15:30   NW 19/ 20  21.0  5.0  1020.9    0.0   0.0   0.0   0.0   10000 
Sun 16:00   NW 13/ 19  21.0  7.6  1020.9    0.0   0.0   0.0   0.0   10000 
Sun 16:30  NNW 13/ 19  20.2  6.9  1020.9    0.0   0.0   0.0   0.0   10000 
Sun 17:00  NNW 11/ 15  19.9  7.9  1021.1    0.0   0.0   0.0   0.0   10000